Time;durP1;ratioP1;P1;durP2;ratioP2;P2;SDS_P1;SDS_P2;PMS_P1;PMS_P2;Temp;Humidity;BMP_temperature;BMP_pressure;BME280_temperature;BME280_humidity;BME280_pressure;Samples;Min_cycle;Max_cycle;Signal;HPM_P1;HPM_P2
2022/09/05 00:02:02;;;;;;;7.18;4.13;;;;;;;16.45;78.73;101774.41;5109548;27;20098;-84
2022/09/05 00:04:52;;;;;;;10.48;4.05;;;;;;;16.43;78.50;101779.00;5109119;28;20115;-84
2022/09/05 00:07:23;;;;;;;5.13;3.55;;;;;;;16.46;78.48;101771.63;5110820;28;20137;-83
2022/09/05 00:10:07;;;;;;;7.05;3.90;;;;;;;16.40;79.08;101777.41;5111345;28;20024;-84
2022/09/05 00:12:34;;;;;;;9.15;4.03;;;;;;;16.32;79.37;101774.56;5110121;28;20032;-84
2022/09/05 00:15:09;;;;;;;5.18;3.55;;;;;;;16.30;79.53;101772.03;5110930;28;20153;-83
2022/09/05 00:17:53;;;;;;;8.88;3.88;;;;;;;16.39;78.72;101777.53;5111847;28;20050;-84
2022/09/05 00:20:34;;;;;;;5.70;3.45;;;;;;;16.34;79.42;101777.09;5103365;28;20545;-83
2022/09/05 00:23:18;;;;;;;5.43;3.78;;;;;;;16.25;80.09;101779.53;5095613;28;20028;-83
2022/09/05 00:25:46;;;;;;;6.18;3.50;;;;;;;16.26;79.91;101775.91;5098912;28;20102;-83
2022/09/05 00:28:19;;;;;;;6.45;3.70;;;;;;;16.32;79.61;101776.38;5094220;28;20032;-83
2022/09/05 00:31:00;;;;;;;6.13;3.80;;;;;;;16.24;79.97;101772.53;5097233;28;20077;-83
2022/09/05 00:34:01;;;;;;;5.20;3.33;;;;;;;16.32;78.39;101776.38;5099488;28;20122;-83
2022/09/05 00:36:39;;;;;;;6.90;3.92;;;;;;;16.20;79.33;101773.78;5099029;28;20028;-83
2022/09/05 00:39:23;;;;;;;6.70;3.67;;;;;;;16.15;79.56;101768.00;5095750;28;20032;-83
2022/09/05 00:41:53;;;;;;;7.80;4.00;;;;;;;16.06;80.57;101773.25;5097798;28;20039;-83
2022/09/05 00:44:23;;;;;;;6.88;3.70;;;;;;;16.04;80.05;101770.72;5102459;28;20032;-83
2022/09/05 00:46:54;;;;;;;7.95;3.92;;;;;;;16.03;80.86;101768.19;5097392;28;20042;-82
2022/09/05 00:49:31;;;;;;;6.82;3.88;;;;;;;16.01;80.69;101770.97;5098294;28;20031;-83
2022/09/05 00:52:09;;;;;;;10.02;4.10;;;;;;;15.95;81.30;101768.78;5096021;28;20037;-83
2022/09/05 00:55:01;;;;;;;8.60;4.28;;;;;;;15.91;81.57;101764.69;5104475;28;20016;-81
2022/09/05 00:57:38;;;;;;;6.53;3.72;;;;;;;15.97;80.59;101761.53;5097073;28;20027;-84
2022/09/05 01:00:12;;;;;;;5.65;3.85;;;;;;;15.87;81.28;101758.81;5094783;28;20028;-81
2022/09/05 01:02:37;;;;;;;8.85;4.00;;;;;;;15.86;80.95;101762.44;5098803;28;20027;-83
2022/09/05 01:05:14;;;;;;;6.40;3.88;;;;;;;15.88;81.14;101765.78;5096759;28;20024;-82
2022/09/05 01:07:58;;;;;;;7.20;4.10;;;;;;;15.86;81.16;101761.59;5095942;28;20103;-81
2022/09/05 01:10:42;;;;;;;6.18;4.00;;;;;;;15.82;80.97;101760.16;5096890;28;20024;-83
2022/09/05 01:13:15;;;;;;;6.18;3.97;;;;;;;15.76;81.64;101760.66;5101699;28;20031;-82
2022/09/05 01:15:40;;;;;;;;;;;;;;;15.94;78.65;101767.09;5096328;28;20019;-82
2022/09/05 01:18:36;;;;;;;9.82;4.60;;;;;;;15.72;81.41;101761.88;5110390;28;20367;-83
2022/09/05 01:21:32;;;;;;;7.93;4.10;;;;;;;15.70;81.54;101759.34;5098606;28;20027;-83
2022/09/05 01:24:16;;;;;;;9.20;4.22;;;;;;;15.67;81.49;101767.56;5097095;28;20019;-82
2022/09/05 01:26:55;;;;;;;5.88;4.00;;;;;;;15.69;81.25;101765.63;5098251;28;20714;-83
2022/09/05 01:29:20;;;;;;;5.47;3.88;;;;;;;15.58;81.66;101763.81;5098775;28;20030;-83
2022/09/05 01:31:57;;;;;;;6.05;4.22;;;;;;;15.53;82.36;101765.97;5110666;28;20028;-83
2022/09/05 01:34:58;;;;;;;7.72;4.28;;;;;;;15.60;81.43;101772.47;5092918;28;20400;-83
2022/09/05 01:37:25;;;;;;;11.98;4.22;;;;;;;15.49;82.37;101764.50;5088338;28;20064;-83
2022/09/05 01:40:12;;;;;;;7.95;4.13;;;;;;;15.50;82.11;101760.91;5088090;28;20037;-83
2022/09/05 01:42:44;;;;;;;8.40;4.40;;;;;;;15.47;82.04;101766.44;5101788;28;20059;-83
2022/09/05 01:45:15;;;;;;;7.63;4.20;;;;;;;15.45;82.38;101756.94;5107049;28;20024;-83
2022/09/05 01:47:49;;;;;;;7.00;4.40;;;;;;;15.43;82.67;101757.06;5107884;28;20078;-84
2022/09/05 01:50:38;;;;;;;7.57;4.22;;;;;;;15.48;82.15;101762.84;5106780;28;20027;-84
2022/09/05 01:53:24;;;;;;;6.10;4.10;;;;;;;15.44;82.39;101749.94;5106707;28;20536;-84
2022/09/05 01:56:09;;;;;;;8.25;4.63;;;;;;;15.43;81.57;101759.72;5108312;28;20034;-83
2022/09/05 01:58:50;;;;;;;5.53;4.10;;;;;;;15.36;82.50;101758.50;5087889;28;20035;-83
2022/09/05 02:01:29;;;;;;;6.97;4.13;;;;;;;15.36;82.71;101759.34;5085655;28;20050;-83
2022/09/05 02:04:00;;;;;;;7.05;4.50;;;;;;;15.36;83.40;101758.50;5088091;28;20024;-82
2022/09/05 02:07:13;;;;;;;7.80;4.18;;;;;;;15.42;82.38;101757.19;5086666;28;20032;-83
2022/09/05 02:10:00;;;;;;;8.48;4.70;;;;;;;15.33;83.44;101753.47;5005087;28;20033;-83
2022/09/05 02:12:45;;;;;;;5.55;4.30;;;;;;;15.32;82.69;101757.06;5088100;28;20468;-83
2022/09/05 02:15:20;;;;;;;6.53;4.38;;;;;;;15.27;83.16;101762.75;5086996;28;20103;-83
2022/09/05 02:17:52;;;;;;;8.68;5.32;;;;;;;15.24;83.71;101760.34;5088410;28;20115;-83
2022/09/05 02:20:23;;;;;;;6.40;4.70;;;;;;;15.24;83.44;101764.81;5089438;28;20035;-82
2022/09/05 02:22:52;;;;;;;9.35;4.78;;;;;;;15.16;83.40;101762.72;5104186;28;20034;-83
2022/09/05 02:25:24;;;;;;;8.80;5.28;;;;;;;15.20;83.66;101758.88;5109733;28;20106;-82
2022/09/05 02:28:08;;;;;;;9.88;4.97;;;;;;;15.15;84.23;101765.50;5110646;28;20047;-82
2022/09/05 02:30:41;;;;;;;8.75;5.32;;;;;;;15.14;83.78;101763.81;5107682;28;20118;-82
2022/09/05 02:33:28;;;;;;;7.82;5.22;;;;;;;15.14;83.74;101769.13;5113429;28;20045;-82
2022/09/05 02:36:52;;;;;;;7.97;5.28;;;;;;;15.23;82.44;101771.06;5113177;28;20027;-82
2022/09/05 02:39:46;;;;;;;7.28;5.60;;;;;;;15.18;83.01;101768.75;5059964;28;20040;-82
2022/09/05 02:42:23;;;;;;;6.82;4.88;;;;;;;15.07;83.77;101762.59;5102823;28;20066;-81
2022/09/05 02:44:58;;;;;;;7.75;5.43;;;;;;;15.03;84.20;101767.31;5113112;28;20024;-82
2022/09/05 02:47:39;;;;;;;6.18;5.00;;;;;;;15.05;83.66;101768.88;5122218;28;20034;-82
2022/09/05 02:50:33;;;;;;;8.70;5.50;;;;;;;15.09;83.19;101765.97;5122389;28;20015;-82
2022/09/05 02:52:59;;;;;;;10.70;5.43;;;;;;;15.00;84.35;101770.19;5123250;28;20030;-82
2022/09/05 02:55:45;;;;;;;8.13;5.30;;;;;;;14.94;84.38;101768.88;5128479;27;20031;-82
2022/09/05 02:58:55;;;;;;;9.43;5.95;;;;;;;15.03;83.68;101768.16;5123040;28;20027;-82
2022/09/05 03:01:44;;;;;;;11.05;5.88;;;;;;;14.98;84.10;101770.31;5115285;28;20027;-82
2022/09/05 03:04:21;;;;;;;8.25;5.90;;;;;;;14.91;84.34;101766.47;5114404;28;20391;-81
2022/09/05 03:07:20;;;;;;;8.68;5.97;;;;;;;14.95;84.06;101770.56;5113462;28;20085;-81
2022/09/05 03:10:27;;;;;;;8.95;6.50;;;;;;;15.00;83.14;101770.19;5101847;28;20600;-82
2022/09/05 03:13:20;;;;;;;10.13;6.50;;;;;;;14.89;84.11;101771.03;5032186;28;20508;-82
2022/09/05 03:16:31;;;;;;;8.98;6.90;;;;;;;14.88;83.97;101772.00;5033061;28;20028;-81
2022/09/05 03:19:08;;;;;;;11.13;6.55;;;;;;;14.84;84.59;101773.22;5080782;28;20657;-82
2022/09/05 03:21:58;;;;;;;10.77;6.60;;;;;;;14.84;84.45;101762.59;5113292;28;20023;-82
2022/09/05 03:24:54;;;;;;;9.23;6.25;;;;;;;14.82;84.26;101764.53;5115287;28;20085;-82
2022/09/05 03:27:35;;;;;;;8.85;6.18;;;;;;;14.75;84.82;101768.59;5114766;28;20114;-82
2022/09/05 03:30:05;;;;;;;6.93;6.13;;;;;;;14.73;84.85;101767.88;5116145;28;20387;-82
2022/09/05 03:33:07;;;;;;;9.57;6.80;;;;;;;14.78;84.36;101764.84;5117278;28;20024;-82
2022/09/05 03:36:10;;;;;;;8.48;6.30;;;;;;;14.70;84.56;101768.94;5103825;28;20024;-82
2022/09/05 03:38:47;;;;;;;9.45;6.50;;;;;;;14.66;85.28;101770.16;5100740;28;20019;-82
2022/09/05 03:41:31;;;;;;;8.32;6.85;;;;;;;14.68;84.47;101767.38;5101745;28;20031;-81
2022/09/05 03:43:59;;;;;;;10.63;6.53;;;;;;;14.58;84.80;101771.69;5098048;28;20495;-82
2022/09/05 03:46:49;;;;;;;12.02;7.00;;;;;;;14.58;84.77;101779.66;5106611;28;20592;-82
2022/09/05 03:49:24;;;;;;;10.57;6.50;;;;;;;14.51;85.63;101770.47;5113930;28;20019;-83
2022/09/05 03:52:13;;;;;;;8.52;6.47;;;;;;;14.55;85.30;101772.78;5117694;28;20052;-82
2022/09/05 03:54:57;;;;;;;7.43;5.95;;;;;;;14.54;85.18;101759.66;5114120;28;20097;-82
2022/09/05 03:57:46;;;;;;;8.63;5.57;;;;;;;14.47;85.26;101761.94;5116482;28;20019;-83
2022/09/05 04:00:20;;;;;;;9.02;6.15;;;;;;;14.43;86.10;101764.94;5104941;28;20897;-82
2022/09/05 04:03:04;;;;;;;10.57;6.18;;;;;;;14.43;85.82;101764.94;5108824;28;20710;-82
2022/09/05 04:05:39;;;;;;;10.27;6.20;;;;;;;14.40;85.83;101768.59;5120796;28;20032;-82
2022/09/05 04:08:29;;;;;;;9.80;6.18;;;;;;;14.41;85.33;101776.44;5120562;28;20047;-82
2022/09/05 04:11:06;;;;;;;10.00;6.18;;;;;;;14.34;86.05;101763.75;5121238;28;20066;-82
2022/09/05 04:13:58;;;;;;;10.63;6.32;;;;;;;14.42;85.30;101769.34;5121328;28;20075;-82
2022/09/05 04:16:26;;;;;;;8.95;6.13;;;;;;;14.33;86.07;101770.00;5103515;28;20032;-81
2022/09/05 04:19:08;;;;;;;9.40;6.75;;;;;;;14.34;86.00;101769.91;5103618;28;20055;-83
2022/09/05 04:22:14;;;;;;;7.82;6.47;;;;;;;14.35;85.58;101773.38;5111466;28;20051;-82
2022/09/05 04:24:54;;;;;;;9.82;6.60;;;;;;;14.32;85.91;101769.16;5121436;28;20030;-83
2022/09/05 04:28:05;;;;;;;8.63;6.53;;;;;;;14.36;85.58;101770.63;5122626;28;20028;-83
2022/09/05 04:30:47;;;;;;;8.23;6.18;;;;;;;14.35;85.96;101761.00;5121294;28;20024;-83
2022/09/05 04:33:27;;;;;;;10.65;6.93;;;;;;;14.30;86.78;101771.09;5121309;28;20026;-83
2022/09/05 04:36:14;;;;;;;8.82;6.72;;;;;;;14.31;85.45;101769.28;5120245;28;20612;-83
2022/09/05 04:39:18;;;;;;;11.68;6.80;;;;;;;14.29;86.08;101772.03;5120517;28;20030;-82
2022/09/05 04:41:45;;;;;;;9.02;6.80;;;;;;;14.26;86.55;101774.94;5118591;28;20044;-83
2022/09/05 04:44:16;;;;;;;9.32;6.40;;;;;;;14.19;87.13;101776.34;5122279;28;20038;-83
2022/09/05 04:46:47;;;;;;;7.30;6.57;;;;;;;14.19;87.30;101776.34;5119238;28;20330;-82
2022/09/05 04:49:21;;;;;;;9.52;7.43;;;;;;;14.16;87.11;101781.03;5118266;28;20027;-83
2022/09/05 04:52:11;;;;;;;9.40;7.10;;;;;;;14.08;87.63;101794.84;5113699;28;20055;-83
2022/09/05 04:55:10;;;;;;;10.98;7.13;;;;;;;14.16;87.78;101786.31;5111771;28;20027;-83
2022/09/05 04:57:49;;;;;;;10.20;7.80;;;;;;;14.23;88.63;101780.44;5111369;28;20073;-82
2022/09/05 05:00:24;;;;;;;9.38;7.28;;;;;;;14.17;87.71;101788.84;5111645;28;20038;-83
2022/09/05 05:03:11;;;;;;;9.75;7.65;;;;;;;14.24;87.54;101790.09;5112332;28;20024;-83
2022/09/05 05:05:45;;;;;;;10.13;6.97;;;;;;;14.23;87.56;101793.69;5111576;28;20047;-83
2022/09/05 05:08:20;;;;;;;7.75;6.85;;;;;;;14.20;87.57;101791.25;5110101;28;20098;-83
2022/09/05 05:10:50;;;;;;;11.68;7.38;;;;;;;14.16;87.94;101792.47;5110948;28;20047;-83
2022/09/05 05:13:24;;;;;;;10.45;7.47;;;;;;;14.20;88.15;101793.91;5111386;28;20069;-83
2022/09/05 05:16:09;;;;;;;8.00;7.10;;;;;;;14.22;87.58;101796.44;5111795;28;20024;-83
2022/09/05 05:18:40;;;;;;;9.50;7.55;;;;;;;14.20;87.99;101791.25;5110965;28;20102;-82
2022/09/05 05:21:18;;;;;;;10.43;7.00;;;;;;;14.26;87.69;101796.09;5108907;28;20031;-83
2022/09/05 05:23:49;;;;;;;10.82;7.07;;;;;;;14.22;87.82;101802.59;5090937;28;20094;-82
2022/09/05 05:26:25;;;;;;;10.75;7.20;;;;;;;14.24;88.02;101800.66;5088192;28;20073;-83
2022/09/05 05:29:06;;;;;;;14.35;7.93;;;;;;;14.26;88.40;101804.03;5089648;28;20371;-83
2022/09/05 05:31:37;;;;;;;10.75;7.80;;;;;;;14.20;88.34;101804.50;5087524;28;20027;-83
2022/09/05 05:34:14;;;;;;;13.65;7.88;;;;;;;14.25;88.61;101807.66;5087575;28;20028;-83
2022/09/05 05:36:49;;;;;;;10.63;8.07;;;;;;;14.30;88.90;101804.66;5090102;28;20024;-82
2022/09/05 05:39:26;;;;;;;11.57;8.10;;;;;;;14.33;88.56;101799.13;5087610;28;20031;-83
2022/09/05 05:41:55;;;;;;;12.82;8.20;;;;;;;14.36;88.75;101794.44;5090659;28;20055;-82
2022/09/05 05:44:31;;;;;;;12.20;8.25;;;;;;;14.51;88.58;101796.97;5089124;28;20043;-83
2022/09/05 05:47:07;;;;;;;11.30;8.40;;;;;;;14.56;88.75;101805.41;5090764;28;20027;-76
2022/09/05 05:49:44;;;;;;;10.25;8.35;;;;;;;14.66;88.10;101796.63;5108625;28;20054;-75
2022/09/05 05:52:42;;;;;;;13.35;8.30;;;;;;;14.71;87.64;101798.94;5106939;28;20035;-76
2022/09/05 05:55:45;;;;;;;14.00;8.68;;;;;;;14.79;87.59;101804.47;5108152;28;20031;-76
2022/09/05 05:58:45;;;;;;;16.95;9.75;;;;;;;14.87;86.99;101799.47;5108143;28;20079;-76
2022/09/05 06:01:35;;;;;;;16.15;10.10;;;;;;;14.93;87.12;101804.28;5107407;28;20027;-76
2022/09/05 06:04:25;;;;;;;13.90;10.05;;;;;;;15.00;87.09;101809.97;5107973;28;20114;-75
2022/09/05 06:07:08;;;;;;;15.68;10.82;;;;;;;15.13;86.32;101809.84;5105362;28;20035;-84
2022/09/05 06:09:58;;;;;;;20.77;10.90;;;;;;;15.24;86.33;101817.81;5095860;28;20487;-83
2022/09/05 06:12:53;;;;;;;15.90;10.23;;;;;;;15.33;85.77;101817.09;5094376;28;20101;-83
2022/09/05 06:15:51;;;;;;;15.52;10.98;;;;;;;15.49;84.57;101820.22;5093549;28;20111;-84
2022/09/05 06:18:50;;;;;;;16.75;10.73;;;;;;;15.66;83.90;101826.88;5098444;28;20132;-83
2022/09/05 06:21:26;;;;;;;15.38;10.43;;;;;;;15.75;83.96;101822.66;5092475;28;20020;-76
2022/09/05 06:24:07;;;;;;;14.30;10.77;;;;;;;15.83;83.57;101817.56;5100521;28;20016;-82
2022/09/05 06:27:12;;;;;;;13.73;11.00;;;;;;;15.94;84.15;101828.16;5096568;28;20020;-83
2022/09/05 06:30:14;;;;;;;19.85;11.05;;;;;;;16.05;83.54;101824.66;5101844;28;20123;-83
2022/09/05 06:32:46;;;;;;;20.10;11.02;;;;;;;16.33;80.85;101820.56;5098926;28;20024;-82
2022/09/05 06:35:26;;;;;;;15.52;10.30;;;;;;;16.47;81.15;101826.44;5098028;28;21773;-83
2022/09/05 06:38:25;;;;;;;20.20;9.95;;;;;;;16.70;79.76;101831.66;5096658;28;20023;-83
2022/09/05 06:41:03;;;;;;;21.42;10.80;;;;;;;16.86;78.80;101827.59;5103350;28;20051;-82
2022/09/05 06:44:00;;;;;;;16.13;9.45;;;;;;;17.09;78.00;101819.44;5097247;28;20566;-83
2022/09/05 06:46:36;;;;;;;15.38;9.88;;;;;;;17.34;75.85;101827.00;5099320;28;20102;-83
2022/09/05 06:49:20;;;;;;;21.60;10.15;;;;;;;17.54;75.19;101815.44;5096786;28;20026;-83
2022/09/05 06:52:18;;;;;;;15.80;9.65;;;;;;;17.79;74.12;101816.81;5095782;28;20031;-82
2022/09/05 06:55:02;;;;;;;13.90;9.82;;;;;;;18.06;72.36;101808.19;5102834;28;20055;-83
2022/09/05 06:57:30;;;;;;;18.45;8.77;;;;;;;18.34;70.23;101811.84;5096605;28;20016;-83
2022/09/05 07:00:15;;;;;;;10.52;7.75;;;;;;;18.53;69.59;101811.00;5101130;28;20039;-83
2022/09/05 07:03:23;;;;;;;10.98;8.25;;;;;;;18.72;70.01;101821.66;5098859;28;20079;-85
2022/09/05 07:06:12;;;;;;;12.88;7.88;;;;;;;18.99;67.51;101828.09;5099343;28;20107;-84
2022/09/05 07:08:56;;;;;;;15.90;7.43;;;;;;;19.21;68.13;101822.41;5100539;28;20089;-84
2022/09/05 07:11:31;;;;;;;10.70;7.28;;;;;;;19.41;66.04;101824.00;5100885;28;20063;-83
2022/09/05 07:14:03;;;;;;;8.48;6.00;;;;;;;19.69;64.19;101818.72;5100461;28;20060;-83
2022/09/05 07:16:40;;;;;;;13.95;5.88;;;;;;;19.86;64.31;101827.75;5101465;28;20019;-85
2022/09/05 07:19:31;;;;;;;12.50;5.32;;;;;;;20.11;63.21;101821.69;5104724;28;20030;-84
2022/09/05 07:22:12;;;;;;;10.65;4.68;;;;;;;20.41;62.42;101823.16;5109302;28;20031;-83
2022/09/05 07:24:44;;;;;;;7.95;4.05;;;;;;;20.60;60.18;101823.00;5104027;28;20073;-84
2022/09/05 07:27:11;;;;;;;7.68;3.40;;;;;;;20.81;58.85;101824.47;5107580;28;20024;-84
2022/09/05 07:29:43;;;;;;;8.73;3.55;;;;;;;21.01;59.06;101833.16;5102568;28;20574;-84
2022/09/05 07:32:16;;;;;;;8.68;3.10;;;;;;;21.19;57.75;101834.75;5103773;28;20024;-83
2022/09/05 07:34:44;;;;;;;9.05;3.00;;;;;;;21.44;56.16;101827.75;5105732;28;20026;-83
2022/09/05 07:37:17;;;;;;;6.95;3.00;;;;;;;21.67;55.51;101828.00;5108393;28;20220;-83
2022/09/05 07:39:54;;;;;;;;;;;;;;;21.80;60.63;101828.38;5104307;28;20474;-84
2022/09/05 07:42:39;;;;;;;10.27;3.28;;;;;;;21.99;56.70;101834.44;5099031;28;19911;-85
2022/09/05 07:45:10;;;;;;;5.43;2.80;;;;;;;22.14;54.65;101835.53;5107701;28;20016;-83
2022/09/05 07:47:58;;;;;;;6.47;3.38;;;;;;;22.37;52.19;101838.41;5099727;28;20020;-83
2022/09/05 07:50:26;;;;;;;6.70;2.92;;;;;;;22.65;52.14;101833.56;5108257;28;20069;-84
2022/09/05 07:52:58;;;;;;;7.13;3.20;;;;;;;22.71;53.52;101838.25;5101270;28;20052;-84
2022/09/05 07:55:33;;;;;;;;;;;;;;;23.09;57.17;101847.47;5101621;28;20016;-84
2022/09/05 07:58:05;;;;;;;5.53;2.40;;;;;;;23.50;50.63;101833.91;5101597;28;20000;-84
2022/09/05 08:00:31;;;;;;;7.60;2.53;;;;;;;23.75;49.63;101831.00;5091740;28;20078;-84
2022/09/05 08:03:07;;;;;;;5.28;2.70;;;;;;;24.02;49.27;101834.22;5100586;28;20032;-84
2022/09/05 08:05:39;;;;;;;6.88;2.53;;;;;;;24.24;47.28;101832.53;5099989;28;20111;-84
2022/09/05 08:08:11;;;;;;;6.32;2.40;;;;;;;24.52;47.46;101830.19;5108405;28;20035;-84
2022/09/05 08:11:03;;;;;;;6.22;2.47;;;;;;;24.61;49.92;101840.69;5101022;28;20015;-83
2022/09/05 08:13:51;;;;;;;8.77;2.50;;;;;;;24.77;47.98;101834.31;5102990;28;20016;-83
2022/09/05 08:16:21;;;;;;;8.38;2.53;;;;;;;24.85;45.11;101830.72;5105268;28;20114;-84
2022/09/05 08:18:53;;;;;;;4.60;2.20;;;;;;;24.98;45.15;101826.41;5101165;28;20052;-84
2022/09/05 08:21:33;;;;;;;3.03;1.83;;;;;;;25.12;45.87;101834.69;5100054;28;20020;-83
2022/09/05 08:24:08;;;;;;;4.05;2.10;;;;;;;25.29;44.57;101828.09;5102690;28;20234;-84
2022/09/05 08:26:42;;;;;;;7.68;2.25;;;;;;;25.42;44.74;101832.81;5106281;28;20023;-85
2022/09/05 08:29:25;;;;;;;5.13;2.10;;;;;;;25.73;45.49;101835.34;5103348;28;20047;-87
2022/09/05 08:32:08;;;;;;;6.25;2.03;;;;;;;25.95;45.35;101834.34;5103263;28;20027;-85
2022/09/05 08:34:47;;;;;;;4.32;1.80;;;;;;;26.00;45.12;101834.59;5108107;28;20102;-83
2022/09/05 08:37:19;;;;;;;7.93;2.30;;;;;;;26.17;42.60;101836.03;5108637;28;20279;-83
2022/09/05 08:39:47;;;;;;;8.27;1.92;;;;;;;26.23;41.17;101831.75;5097933;28;20529;-84
2022/09/05 08:42:21;;;;;;;6.85;1.92;;;;;;;26.18;41.80;101832.31;5096865;28;20036;-84
2022/09/05 08:45:23;;;;;;;5.90;1.80;;;;;;;26.37;44.15;101835.41;5098377;28;20072;-85
2022/09/05 08:48:22;;;;;;;7.20;2.40;;;;;;;26.43;43.69;101821.19;5100007;28;20381;-86
2022/09/05 08:51:06;;;;;;;5.22;1.90;;;;;;;26.67;41.09;101814.50;5102560;28;20025;-85
2022/09/05 08:54:00;;;;;;;9.38;2.10;;;;;;;26.93;41.07;101827.38;5093830;28;20020;-84
2022/09/05 08:57:06;;;;;;;7.07;2.20;;;;;;;27.07;41.21;101821.91;5086180;28;20061;-84
2022/09/05 08:59:43;;;;;;;6.13;1.92;;;;;;;27.16;39.80;101801.78;5104498;28;20061;-85
2022/09/05 09:02:44;;;;;;;4.47;1.75;;;;;;;27.35;41.37;101811.03;5101144;28;20020;-85
2022/09/05 09:05:29;;;;;;;4.85;1.90;;;;;;;27.50;41.32;101810.91;5072826;28;20040;-84
2022/09/05 09:08:19;;;;;;;6.55;1.98;;;;;;;27.78;40.98;101808.97;5100093;28;20023;-85
2022/09/05 09:10:56;;;;;;;5.30;2.10;;;;;;;27.87;39.88;101803.34;5099360;28;20433;-85
2022/09/05 09:13:33;;;;;;;3.55;1.98;;;;;;;27.98;37.84;101803.59;5095624;28;20035;-83
2022/09/05 09:16:09;;;;;;;5.90;1.90;;;;;;;28.04;38.87;101810.91;5102025;28;20030;-85
2022/09/05 09:19:00;;;;;;;7.13;1.90;;;;;;;28.19;38.15;101812.59;5096088;28;20080;-86
2022/09/05 09:21:42;;;;;;;4.97;1.85;;;;;;;28.19;37.62;101801.75;5095959;28;20027;-85
2022/09/05 09:24:34;;;;;;;93.13;15.48;;;;;;;28.25;38.25;101799.09;5098839;28;20407;-83
2022/09/05 09:27:06;;;;;;;33.33;4.28;;;;;;;28.26;36.63;101802.63;5099560;28;20015;-86
2022/09/05 09:29:37;;;;;;;5.75;1.90;;;;;;;28.47;36.72;101798.91;5096751;28;20027;-86
2022/09/05 09:32:20;;;;;;;3.80;1.60;;;;;;;28.57;36.77;101794.72;5095455;28;20020;-85
2022/09/05 09:34:59;;;;;;;5.70;1.40;;;;;;;28.73;36.06;101798.03;5096937;28;20020;-85
2022/09/05 09:37:54;;;;;;;5.03;1.70;;;;;;;28.67;35.95;101794.31;5099517;28;20023;-85
2022/09/05 09:40:30;;;;;;;4.53;1.63;;;;;;;28.73;34.77;101792.63;5097869;28;20514;-86
2022/09/05 09:43:22;;;;;;;3.25;1.50;;;;;;;28.83;36.77;101793.88;5094639;28;20044;-84
2022/09/05 09:46:11;;;;;;;2.35;1.38;;;;;;;28.96;35.12;101782.22;5096920;28;20028;-83
2022/09/05 09:48:42;;;;;;;3.85;1.50;;;;;;;28.94;34.66;101785.13;5100225;28;20561;-84
2022/09/05 09:51:35;;;;;;;4.43;1.80;;;;;;;29.02;35.31;101784.06;5099440;28;20027;-77
2022/09/05 09:54:28;;;;;;;3.67;1.80;;;;;;;29.26;35.95;101783.38;5097264;28;20024;-78
2022/09/05 09:57:22;;;;;;;3.75;1.55;;;;;;;29.41;35.68;101774.13;5100047;28;20028;-84
2022/09/05 09:59:53;;;;;;;4.57;1.60;;;;;;;29.45;35.14;101781.66;5099273;28;20031;-84
2022/09/05 10:02:28;;;;;;;3.92;1.50;;;;;;;29.55;31.88;101773.03;5098192;28;20015;-84
2022/09/05 10:05:31;;;;;;;6.07;1.40;;;;;;;29.64;34.75;101763.63;5100516;28;20786;-83
2022/09/05 10:08:15;;;;;;;1.58;1.23;;;;;;;29.67;33.38;101770.50;5108121;28;20466;-84
2022/09/05 10:11:07;;;;;;;5.05;1.40;;;;;;;29.62;32.67;101760.31;5089889;28;20107;-85
2022/09/05 10:13:55;;;;;;;2.90;1.52;;;;;;;29.68;33.40;101759.44;5089743;28;20024;-83
2022/09/05 10:16:42;;;;;;;4.93;1.50;;;;;;;29.66;31.34;101758.81;5092126;28;20055;-83
2022/09/05 10:19:43;;;;;;;4.05;1.60;;;;;;;29.71;33.03;101755.44;5090462;28;20031;-85
2022/09/05 10:22:32;;;;;;;253.10;33.20;;;;;;;29.76;31.87;101751.03;5099774;28;20047;-87
2022/09/05 10:25:31;;;;;;;214.40;25.85;;;;;;;29.80;33.40;101752.25;5109481;28;20026;-86
2022/09/05 10:27:59;;;;;;;52.67;6.70;;;;;;;30.03;31.29;101746.28;5114646;28;20348;-85
2022/09/05 10:30:45;;;;;;;4.00;1.33;;;;;;;30.07;32.50;101752.13;5108175;28;20027;-85
2022/09/05 10:33:25;;;;;;;3.53;1.50;;;;;;;30.19;30.99;101744.91;5108132;28;20052;-85
2022/09/05 10:35:58;;;;;;;5.82;1.42;;;;;;;30.05;29.98;101748.78;5108413;28;20073;-84
2022/09/05 10:38:39;;;;;;;2.15;1.30;;;;;;;30.17;32.66;101741.59;5107798;28;20033;-84
2022/09/05 10:41:13;;;;;;;4.53;1.58;;;;;;;30.16;30.84;101742.63;5091445;28;20365;-84
2022/09/05 10:43:49;;;;;;;5.03;1.50;;;;;;;30.47;30.60;101744.47;5089416;28;20032;-84
2022/09/05 10:46:27;;;;;;;3.13;1.30;;;;;;;30.61;30.40;101742.47;5091881;28;20106;-84
2022/09/05 10:48:56;;;;;;;4.05;1.23;;;;;;;30.50;29.05;101736.69;5086768;28;20027;-86
2022/09/05 10:51:33;;;;;;;4.82;1.35;;;;;;;30.36;29.58;101735.13;5088846;28;20476;-85
2022/09/05 10:54:25;;;;;;;3.17;1.20;;;;;;;30.37;30.31;101728.66;5091185;28;20156;-83
2022/09/05 10:57:21;;;;;;;3.53;1.10;;;;;;;30.40;30.36;101725.47;5091747;28;20036;-83
2022/09/05 11:00:08;;;;;;;2.38;1.20;;;;;;;30.59;29.87;101723.66;5100169;28;20019;-84
2022/09/05 11:02:40;;;;;;;2.22;1.17;;;;;;;30.61;28.56;101718.84;5097952;28;20047;-84
2022/09/05 11:05:23;;;;;;;9.90;2.65;;;;;;;30.58;29.71;101724.69;5098306;28;20028;-84
2022/09/05 11:08:00;;;;;;;4.32;1.33;;;;;;;30.51;29.56;101722.06;5101985;28;20016;-84
2022/09/05 11:10:46;;;;;;;4.53;0.90;;;;;;;30.51;29.25;101716.63;5106765;28;20023;-85
2022/09/05 11:13:29;;;;;;;1.63;1.13;;;;;;;30.53;28.21;101714.50;5113372;28;20354;-78
2022/09/05 11:16:13;;;;;;;2.47;1.33;;;;;;;30.59;29.30;101709.22;5090941;28;20028;-77
2022/09/05 11:19:08;;;;;;;10.93;1.35;;;;;;;30.54;29.20;101710.75;5091713;28;20035;-78
2022/09/05 11:22:00;;;;;;;4.78;1.20;;;;;;;30.70;30.09;101709.34;5095907;28;20018;-78
2022/09/05 11:24:28;;;;;;;2.17;1.20;;;;;;;30.89;28.99;101707.47;5109578;28;20509;-78
2022/09/05 11:27:21;;;;;;;22.52;5.50;;;;;;;31.15;29.93;101723.47;5110693;28;20030;-78
2022/09/05 11:29:50;;;;;;;5.35;1.55;;;;;;;31.17;28.22;101715.91;5111956;28;20035;-77
2022/09/05 11:32:16;;;;;;;21.67;3.80;;;;;;;31.14;29.10;101708.19;5108486;28;20178;-78
2022/09/05 11:34:54;;;;;;;26.30;4.78;;;;;;;31.20;29.27;101709.19;5111382;28;20106;-78
2022/09/05 11:37:38;;;;;;;4.55;1.20;;;;;;;31.41;29.87;101700.53;5110688;28;20023;-76
2022/09/05 11:40:22;;;;;;;5.40;1.23;;;;;;;31.29;28.31;101696.13;5108781;28;20455;-76
2022/09/05 11:43:02;;;;;;;2.60;1.30;;;;;;;31.37;28.81;101701.25;5093453;28;20051;-76
2022/09/05 11:45:58;;;;;;;3.05;1.25;;;;;;;31.36;28.62;101688.69;5105072;28;20020;-77
2022/09/05 11:48:33;;;;;;;3.47;1.30;;;;;;;31.30;28.12;101692.34;5090166;28;20093;-79
2022/09/05 11:51:16;;;;;;;2.38;1.10;;;;;;;31.34;29.68;101693.53;5103560;28;20027;-76
2022/09/05 11:53:53;;;;;;;5.40;1.40;;;;;;;31.27;29.03;101692.81;5111471;28;20024;-77
2022/09/05 11:56:36;;;;;;;8.45;1.55;;;;;;;31.49;30.16;101691.22;5110680;28;20483;-77
2022/09/05 11:59:45;;;;;;;6.88;1.38;;;;;;;31.52;29.56;101693.47;5110837;28;20543;-77
2022/09/05 12:02:49;;;;;;;4.97;1.27;;;;;;;31.36;29.26;101689.53;5098974;28;20080;-77
2022/09/05 12:05:51;;;;;;;11.43;2.10;;;;;;;31.50;29.35;101687.44;5107146;28;20051;-79
2022/09/05 12:08:38;;;;;;;11.17;2.40;;;;;;;31.62;29.07;101691.03;5099575;28;20035;-77
2022/09/05 12:11:09;;;;;;;4.68;1.42;;;;;;;31.68;28.43;101673.78;5111146;27;20378;-78
2022/09/05 12:13:47;;;;;;;10.60;2.15;;;;;;;31.62;28.11;101680.16;5106751;28;20388;-76
2022/09/05 12:16:31;;;;;;;6.38;1.40;;;;;;;31.70;28.88;101676.28;5104528;28;20027;-77
2022/09/05 12:19:25;;;;;;;9.90;2.35;;;;;;;31.66;28.33;101675.91;5100013;28;20109;-77
2022/09/05 12:22:01;;;;;;;6.95;1.55;;;;;;;31.66;29.57;101675.91;5109522;28;20059;-77
2022/09/05 12:24:58;;;;;;;6.05;1.40;;;;;;;31.81;28.54;101661.03;5110849;28;20027;-76
2022/09/05 12:27:28;;;;;;;28.77;3.47;;;;;;;31.84;28.21;101671.47;5083910;28;20487;-79
2022/09/05 12:29:57;;;;;;;14.73;2.20;;;;;;;31.69;27.14;101666.44;5110089;28;20051;-77
2022/09/05 12:32:24;;;;;;;7.40;1.52;;;;;;;31.59;28.96;101653.38;5110344;28;20024;-77